Time;durP1;ratioP1;P1;durP2;ratioP2;P2;SDS_P1;SDS_P2;PMS_P1;PMS_P2;Temp;Humidity;BMP_temperature;BMP_pressure;BME280_temperature;BME280_humidity;BME280_pressure;Samples;Min_cycle;Max_cycle;Signal;HPM_P1;HPM_P2
2020/12/22 00:01:31;;;;;;;10.13;4.70;;;;;;;14.60;77.19;100615.75;5047941;28;20029;-82
2020/12/22 00:03:57;;;;;;;5.50;4.63;;;;;;;14.53;77.34;100624.00;5050890;28;20115;-82
2020/12/22 00:06:24;;;;;;;4.65;3.78;;;;;;;14.54;77.40;100625.75;5050787;28;20025;-82
2020/12/22 00:08:51;;;;;;;4.72;3.95;;;;;;;14.57;77.39;100614.09;5051429;27;20101;-83
2020/12/22 00:11:19;;;;;;;6.40;4.75;;;;;;;14.64;77.01;100598.69;5050805;28;20112;-83
2020/12/22 00:13:46;;;;;;;3.78;3.45;;;;;;;14.48;77.50;100615.31;5050838;28;20138;-83
2020/12/22 00:16:14;;;;;;;4.45;3.80;;;;;;;14.60;77.02;100607.75;5051017;28;20050;-82
2020/12/22 00:18:40;;;;;;;5.75;3.95;;;;;;;14.53;77.36;100597.34;5050347;28;20548;-83
2020/12/22 00:21:07;;;;;;;5.28;3.78;;;;;;;14.44;77.59;100605.69;5050781;28;20483;-83
2020/12/22 00:23:33;;;;;;;6.13;4.10;;;;;;;14.57;77.50;100598.94;5050130;28;20029;-84
2020/12/22 00:26:00;;;;;;;6.13;3.60;;;;;;;14.61;77.10;100604.16;5050446;28;20539;-82
2020/12/22 00:28:26;;;;;;;5.40;4.28;;;;;;;14.68;76.85;100595.03;5050356;28;20021;-82
2020/12/22 00:30:53;;;;;;;10.50;4.30;;;;;;;14.69;76.76;100596.75;5049414;28;20104;-82
2020/12/22 00:33:20;;;;;;;4.78;3.60;;;;;;;14.57;77.20;100608.75;5046957;28;20041;-82
2020/12/22 00:35:47;;;;;;;7.65;4.50;;;;;;;14.55;77.27;100599.94;5048470;28;20025;-84
2020/12/22 00:38:14;;;;;;;6.03;4.30;;;;;;;14.59;77.43;100601.53;5049910;28;20074;-82
2020/12/22 00:40:41;;;;;;;7.30;4.82;;;;;;;14.29;78.47;100593.00;5050399;28;20029;-82
2020/12/22 00:43:07;;;;;;;5.50;4.30;;;;;;;14.34;78.33;100604.34;5049648;28;20032;-83
2020/12/22 00:45:34;;;;;;;3.58;3.00;;;;;;;14.31;78.52;100585.81;5050447;28;20032;-81
2020/12/22 00:48:00;;;;;;;4.60;3.40;;;;;;;14.40;78.27;100585.44;5049802;28;20021;-81
2020/12/22 00:50:26;;;;;;;5.55;3.65;;;;;;;14.48;78.13;100594.00;5049670;28;20476;-82
2020/12/22 00:52:53;;;;;;;5.55;4.20;;;;;;;14.48;78.21;100582.44;5049284;28;20056;-82
2020/12/22 00:55:19;;;;;;;5.93;3.83;;;;;;;14.24;78.98;100596.72;5050454;28;20029;-83
2020/12/22 00:57:46;;;;;;;4.47;3.90;;;;;;;14.48;77.80;100583.34;5047421;28;20364;-83
2020/12/22 01:00:14;;;;;;;9.73;4.57;;;;;;;14.54;77.74;100572.44;5050302;28;20025;-83
2020/12/22 01:02:40;;;;;;;5.95;3.30;;;;;;;14.57;77.54;100598.94;5049323;28;20040;-82
2020/12/22 01:05:07;;;;;;;4.38;2.85;;;;;;;14.44;78.17;100560.38;5049808;28;20033;-83
2020/12/22 01:07:34;;;;;;;5.07;3.17;;;;;;;14.40;78.32;100590.75;5049758;28;20031;-82
2020/12/22 01:10:00;;;;;;;4.18;2.45;;;;;;;14.48;77.96;100588.66;5049874;28;20045;-82
2020/12/22 01:12:27;;;;;;;3.58;2.60;;;;;;;14.38;78.65;100592.63;5048672;28;20403;-84
2020/12/22 01:14:54;;;;;;;4.20;2.38;;;;;;;14.24;78.94;100586.06;5050136;28;20021;-83
2020/12/22 01:17:20;;;;;;;3.35;2.17;;;;;;;14.36;78.49;100590.00;5049904;28;20025;-83
2020/12/22 01:19:47;;;;;;;3.72;2.42;;;;;;;14.47;78.10;100596.75;5048839;28;20498;-84
2020/12/22 01:22:14;;;;;;;4.03;2.72;;;;;;;14.60;77.50;100599.75;5049681;28;20081;-84
2020/12/22 01:24:40;;;;;;;5.15;2.38;;;;;;;14.47;77.99;100602.91;5048150;28;20026;-82
2020/12/22 01:27:06;;;;;;;3.05;2.47;;;;;;;14.35;78.30;100614.06;5049978;28;20029;-82
2020/12/22 01:29:33;;;;;;;4.95;2.67;;;;;;;14.55;77.96;100608.81;5046792;28;20077;-83
2020/12/22 01:31:59;;;;;;;3.38;2.70;;;;;;;14.54;77.94;100607.09;5049653;28;20029;-84
2020/12/22 01:34:26;;;;;;;3.10;2.80;;;;;;;14.61;77.49;100617.50;5048761;28;20029;-83
2020/12/22 01:36:53;;;;;;;2.42;2.22;;;;;;;14.69;77.23;100602.06;5047511;28;20108;-83
2020/12/22 01:39:19;;;;;;;2.63;1.67;;;;;;;14.50;77.89;100617.94;5048435;28;20029;-84
2020/12/22 01:41:45;;;;;;;5.95;2.30;;;;;;;14.61;77.50;100618.34;5048850;28;20025;-83
2020/12/22 01:44:15;;;;;;;3.47;1.73;;;;;;;14.51;77.65;100646.31;5048243;28;20117;-83
2020/12/22 01:46:45;;;;;;;3.22;1.80;;;;;;;14.40;78.45;100623.63;5048591;28;20375;-84
2020/12/22 01:52:03;;;;;;;3.08;1.88;;;;;;;14.41;78.32;100637.81;5068427;28;20914;-83
2020/12/22 01:54:31;;;;;;;4.15;1.92;;;;;;;14.43;77.83;100643.97;5059195;28;20207;-84
2020/12/22 01:56:58;;;;;;;2.20;1.80;;;;;;;14.38;78.76;100635.25;5059724;28;20471;-84
2020/12/22 01:59:25;;;;;;;2.17;1.98;;;;;;;14.59;77.79;100635.34;5059083;28;20071;-83
2020/12/22 02:01:54;;;;;;;3.92;1.92;;;;;;;14.50;78.14;100639.25;5058520;28;20033;-83
2020/12/22 02:04:21;;;;;;;3.78;2.20;;;;;;;14.45;78.36;100641.25;5059237;28;20035;-84
2020/12/22 02:06:48;;;;;;;4.95;2.25;;;;;;;14.51;77.76;100646.31;5059547;28;20088;-85
2020/12/22 02:09:15;;;;;;;4.70;2.70;;;;;;;14.71;77.15;100638.41;5057446;28;20477;-83
2020/12/22 02:11:42;;;;;;;3.05;2.08;;;;;;;14.62;77.83;100638.75;5059291;28;20033;-83
2020/12/22 02:14:10;;;;;;;7.38;2.13;;;;;;;14.41;78.18;100645.81;5059296;28;20017;-84
2020/12/22 02:16:38;;;;;;;4.07;1.95;;;;;;;14.53;77.89;100660.47;5055832;28;20021;-83
2020/12/22 02:19:05;;;;;;;4.88;2.03;;;;;;;14.48;77.77;100668.66;5058799;28;20025;-83
2020/12/22 02:21:32;;;;;;;5.45;2.15;;;;;;;14.55;77.65;100656.81;5059677;28;20048;-86
2020/12/22 02:23:59;;;;;;;5.30;1.98;;;;;;;14.62;77.19;100656.56;5058125;28;20037;-84
2020/12/22 02:26:26;;;;;;;2.85;1.65;;;;;;;14.54;77.14;100663.06;5057914;28;20032;-83
2020/12/22 02:28:54;;;;;;;7.07;1.80;;;;;;;14.56;77.22;100679.84;5055776;28;20104;-84
2020/12/22 02:31:23;;;;;;;6.10;1.33;;;;;;;14.50;77.41;100677.44;5060176;28;20060;-83
2020/12/22 02:33:50;;;;;;;3.30;1.30;;;;;;;14.66;76.89;100671.53;5057011;28;20496;-83
2020/12/22 02:36:16;;;;;;;4.18;1.15;;;;;;;14.41;77.65;100693.78;5056736;28;20528;-83
2020/12/22 02:38:43;;;;;;;7.07;1.20;;;;;;;14.59;76.86;100675.34;5058437;28;20029;-82
2020/12/22 02:41:11;;;;;;;6.63;1.65;;;;;;;14.46;77.46;100675.81;5059141;28;20032;-83
2020/12/22 02:43:38;;;;;;;5.78;1.27;;;;;;;14.39;77.69;100677.88;5059151;28;20028;-83
2020/12/22 02:46:05;;;;;;;6.82;1.77;;;;;;;14.56;77.04;100673.66;5060086;28;20028;-83
2020/12/22 02:48:31;;;;;;;7.72;1.35;;;;;;;14.37;77.44;100694.84;5057410;28;20099;-84
2020/12/22 02:50:58;;;;;;;6.10;1.77;;;;;;;14.38;77.45;100688.56;5055593;28;20040;-84
2020/12/22 02:53:25;;;;;;;4.82;1.60;;;;;;;14.41;77.21;100699.13;5062884;28;20043;-84
2020/12/22 02:55:52;;;;;;;6.00;1.35;;;;;;;14.45;76.90;100711.41;5062898;28;20049;-84
2020/12/22 02:58:18;;;;;;;6.03;1.75;;;;;;;14.48;76.61;100697.97;5060467;28;20032;-83
2020/12/22 03:00:45;;;;;;;2.85;1.40;;;;;;;14.44;76.71;100699.00;5062428;28;20021;-83
2020/12/22 03:03:11;;;;;;;11.20;1.98;;;;;;;14.51;76.49;100716.50;5055492;28;20037;-84
2020/12/22 03:05:40;;;;;;;9.13;2.40;;;;;;;14.48;76.44;100694.41;5045727;28;20022;-83
2020/12/22 03:08:08;;;;;;;6.95;1.90;;;;;;;14.53;75.97;100709.31;5043911;28;20033;-83
2020/12/22 03:10:35;;;;;;;9.07;2.00;;;;;;;14.51;75.98;100700.50;5043298;28;20029;-84
2020/12/22 03:13:01;;;;;;;11.02;1.92;;;;;;;14.28;76.78;100701.41;5041266;28;20032;-84
2020/12/22 03:15:28;;;;;;;11.18;2.13;;;;;;;14.53;76.04;100681.81;5041123;28;20021;-84
2020/12/22 03:17:54;;;;;;;12.07;2.03;;;;;;;14.51;75.75;100689.84;5041975;28;20116;-84
2020/12/22 03:20:21;;;;;;;10.70;2.00;;;;;;;14.38;76.33;100693.91;5044103;28;20484;-85
2020/12/22 03:22:47;;;;;;;9.27;1.90;;;;;;;14.56;75.58;100692.31;5041821;28;20124;-84
2020/12/22 03:25:13;;;;;;;15.93;2.40;;;;;;;14.39;76.08;100707.19;5041037;28;20026;-86
2020/12/22 03:27:40;;;;;;;10.20;2.13;;;;;;;14.38;75.59;100705.44;5040802;28;20125;-84
2020/12/22 03:30:10;;;;;;;12.82;2.00;;;;;;;14.48;75.72;100705.97;5043129;28;20443;-84
2020/12/22 03:32:37;;;;;;;11.50;2.03;;;;;;;14.62;75.66;100709.91;5043125;28;20027;-84
2020/12/22 03:35:05;;;;;;;14.90;2.30;;;;;;;14.56;75.87;100703.00;5040702;28;20025;-86
2020/12/22 03:37:32;;;;;;;11.38;2.58;;;;;;;14.43;76.24;100721.28;5039345;28;20083;-85
2020/12/22 03:40:00;;;;;;;14.98;2.25;;;;;;;14.41;76.35;100715.13;5040368;28;20037;-84
2020/12/22 03:42:27;;;;;;;10.20;1.77;;;;;;;14.37;76.37;100725.03;5046334;28;20379;-84
2020/12/22 03:44:54;;;;;;;12.43;2.83;;;;;;;14.32;76.44;100728.81;5049487;28;20047;-84
2020/12/22 03:47:21;;;;;;;7.72;1.70;;;;;;;14.48;75.96;100732.63;5049720;28;20025;-83
2020/12/22 03:49:47;;;;;;;13.27;2.30;;;;;;;14.46;75.75;100723.81;5049167;28;20392;-84
2020/12/22 03:52:14;;;;;;;11.23;1.70;;;;;;;14.38;76.19;100732.09;5045745;28;20025;-83
2020/12/22 03:54:40;;;;;;;14.45;2.60;;;;;;;14.18;76.93;100714.19;5047720;28;20022;-86
2020/12/22 03:57:07;;;;;;;17.15;2.72;;;;;;;14.27;76.43;100763.63;5049230;28;20021;-83
2020/12/22 03:59:34;;;;;;;14.10;2.60;;;;;;;14.33;76.35;100730.53;5049397;28;20025;-83
2020/12/22 04:02:01;;;;;;;14.68;2.00;;;;;;;14.27;76.21;100754.72;5053426;28;20033;-84
2020/12/22 04:04:28;;;;;;;10.80;2.47;;;;;;;14.30;76.06;100728.84;5043486;28;20029;-85
2020/12/22 04:06:54;;;;;;;15.27;2.35;;;;;;;14.26;76.46;100742.34;5039789;28;20021;-83
2020/12/22 04:09:21;;;;;;;10.23;1.77;;;;;;;14.37;76.13;100729.50;5040131;28;20413;-84
2020/12/22 04:11:50;;;;;;;11.10;2.30;;;;;;;14.32;76.08;100731.47;5039768;28;20124;-88
2020/12/22 04:14:19;;;;;;;11.38;1.45;;;;;;;14.32;76.02;100728.81;5044589;28;20044;-84
2020/12/22 04:16:46;;;;;;;18.60;2.55;;;;;;;14.48;75.43;100719.28;5048002;28;20040;-84
2020/12/22 04:19:14;;;;;;;6.45;1.60;;;;;;;14.47;75.18;100740.69;5048755;28;20502;-84
2020/12/22 04:21:40;;;;;;;12.18;2.08;;;;;;;14.45;75.12;100754.03;5048702;28;20021;-83
2020/12/22 04:24:07;;;;;;;11.27;1.75;;;;;;;14.49;74.99;100745.03;5046015;28;20029;-84
2020/12/22 04:26:34;;;;;;;8.48;2.45;;;;;;;14.46;74.64;100752.28;5045855;28;20018;-84
2020/12/22 04:29:01;;;;;;;10.75;2.15;;;;;;;14.49;74.76;100745.03;5048946;28;20021;-83
2020/12/22 04:31:28;;;;;;;11.77;2.05;;;;;;;14.46;74.96;100742.47;5048684;28;20120;-84
2020/12/22 04:34:02;;;;;;;7.05;2.30;;;;;;;14.59;74.15;100747.34;5047723;28;20353;-83
2020/12/22 04:36:35;;;;;;;10.13;2.13;;;;;;;14.51;74.42;100752.97;5045052;28;20025;-83
2020/12/22 04:39:07;;;;;;;12.85;2.00;;;;;;;14.47;74.63;100759.34;5046971;28;20475;-83
2020/12/22 04:41:35;;;;;;;13.10;2.25;;;;;;;14.40;74.71;100745.34;5039085;28;20026;-84
2020/12/22 04:44:03;;;;;;;9.20;1.83;;;;;;;14.29;74.54;100748.41;5051935;28;20029;-84
2020/12/22 04:46:31;;;;;;;9.15;2.08;;;;;;;14.51;73.96;100753.81;5048186;28;20018;-84
2020/12/22 04:48:58;;;;;;;12.18;1.77;;;;;;;14.35;74.54;100742.84;5048635;28;20403;-84
2020/12/22 04:51:25;;;;;;;15.50;2.20;;;;;;;14.37;74.55;100762.34;5046692;28;20037;-86
2020/12/22 04:53:52;;;;;;;9.50;1.80;;;;;;;14.38;74.05;100755.19;5045105;28;20033;-84
2020/12/22 04:56:20;;;;;;;7.90;1.70;;;;;;;14.29;74.57;100763.56;5047195;28;20033;-84
2020/12/22 04:58:46;;;;;;;8.15;2.10;;;;;;;14.40;74.27;100774.69;5046939;28;20029;-84
2020/12/22 05:01:16;;;;;;;11.10;2.35;;;;;;;14.12;74.96;100783.69;5053712;28;20100;-84
2020/12/22 05:03:43;;;;;;;12.55;1.90;;;;;;;14.27;74.44;100789.38;5049847;28;20029;-85
2020/12/22 05:06:09;;;;;;;8.13;2.13;;;;;;;14.42;73.95;100791.50;5053370;28;20047;-84
2020/12/22 05:08:36;;;;;;;8.25;1.60;;;;;;;14.44;73.66;100789.63;5051718;28;20104;-84
2020/12/22 05:11:02;;;;;;;9.25;2.03;;;;;;;14.42;74.01;100794.16;5038944;28;20427;-84
2020/12/22 05:13:28;;;;;;;12.05;2.70;;;;;;;14.43;73.60;100787.91;5038655;28;20025;-84
2020/12/22 05:15:54;;;;;;;7.68;1.85;;;;;;;14.32;73.70;100792.78;5039795;28;20052;-84
2020/12/22 05:18:24;;;;;;;7.70;1.85;;;;;;;14.16;73.69;100801.31;5042103;28;20388;-83
2020/12/22 05:20:51;;;;;;;13.40;2.10;;;;;;;14.18;74.06;100807.44;5038841;28;20026;-87
2020/12/22 05:23:19;;;;;;;13.48;2.22;;;;;;;14.12;74.22;100804.13;5043313;28;20025;-84
2020/12/22 05:25:48;;;;;;;13.95;1.95;;;;;;;14.06;74.35;100821.22;5036869;28;20116;-86
2020/12/22 05:28:17;;;;;;;11.00;2.15;;;;;;;14.18;74.33;100819.88;5052187;28;20048;-84
2020/12/22 05:30:44;;;;;;;10.30;2.55;;;;;;;14.24;73.98;100831.22;5039792;28;20107;-84
2020/12/22 05:33:12;;;;;;;13.63;2.80;;;;;;;14.27;73.89;100834.69;5038316;28;20021;-85
2020/12/22 05:35:42;;;;;;;15.80;2.85;;;;;;;14.46;73.45;100835.75;5038625;28;20033;-87
2020/12/22 05:38:09;;;;;;;5.85;1.70;;;;;;;14.18;74.29;100834.09;5049476;28;20049;-84
2020/12/22 05:40:40;;;;;;;12.63;2.13;;;;;;;14.36;73.80;100851.22;5041959;28;20044;-84
2020/12/22 05:43:07;;;;;;;13.20;2.38;;;;;;;14.32;73.86;100848.75;5039745;28;20044;-88
2020/12/22 05:45:35;;;;;;;10.63;2.20;;;;;;;14.49;73.25;100880.09;5042083;28;20068;-84
2020/12/22 05:48:03;;;;;;;11.98;2.75;;;;;;;14.48;73.35;100859.69;5047571;28;20025;-84
2020/12/22 05:50:29;;;;;;;9.93;1.88;;;;;;;14.35;73.31;100869.94;5047361;28;20435;-84
2020/12/22 05:52:56;;;;;;;14.65;2.72;;;;;;;14.44;72.83;100842.06;5047228;28;20376;-85
2020/12/22 05:58:12;;;;;;;10.27;2.15;;;;;;;14.44;72.80;100861.59;5077839;27;20391;-85
2020/12/22 06:00:40;;;;;;;9.02;1.42;;;;;;;14.18;73.58;100850.09;5070274;28;20058;-85
2020/12/22 06:03:11;;;;;;;10.27;1.73;;;;;;;14.44;72.84;100848.28;5064860;28;20103;-85
2020/12/22 06:05:40;;;;;;;10.80;1.67;;;;;;;14.45;72.66;100844.69;5054817;28;20380;-84
2020/12/22 06:08:09;;;;;;;10.93;1.95;;;;;;;14.57;72.17;100860.25;5061505;28;20042;-84
2020/12/22 06:10:38;;;;;;;11.90;2.35;;;;;;;14.35;72.71;100853.94;5057557;28;20043;-84
2020/12/22 06:13:05;;;;;;;7.38;1.70;;;;;;;14.52;72.06;100856.00;5054872;28;20056;-84
2020/12/22 06:15:33;;;;;;;7.75;1.63;;;;;;;14.27;72.83;100858.66;5064840;28;20037;-84
2020/12/22 06:18:00;;;;;;;13.90;2.13;;;;;;;14.15;73.02;100860.84;5062800;28;20093;-84
2020/12/22 06:20:28;;;;;;;8.15;2.00;;;;;;;14.47;72.11;100865.97;5061202;28;20025;-85
2020/12/22 06:25:47;;;;;;;10.68;2.25;;;;;;;14.50;72.02;100871.19;5116540;27;20374;-84
2020/12/22 06:28:28;;;;;;;11.85;2.00;;;;;;;14.42;71.90;100866.13;5111170;27;20032;-84
2020/12/22 06:30:55;;;;;;;9.52;2.50;;;;;;;14.39;72.07;100872.44;5101290;28;20535;-84
2020/12/22 06:33:24;;;;;;;14.52;2.38;;;;;;;14.34;72.21;100900.16;5116948;28;20032;-83
2020/12/22 06:36:01;;;;;;;14.30;2.35;;;;;;;14.19;72.25;100886.47;5110776;28;20036;-84
2020/12/22 06:39:02;;;;;;;12.95;2.88;;;;;;;14.38;71.88;100899.13;5124123;27;20027;-84
2020/12/22 06:44:27;;;;;;;10.25;2.60;;;;;;;14.28;72.00;100922.59;5087750;27;20389;-83
2020/12/22 06:46:56;;;;;;;13.15;1.80;;;;;;;14.39;71.62;100914.22;5057036;28;20107;-83
2020/12/22 06:49:47;;;;;;;11.40;2.28;;;;;;;14.37;71.43;100911.59;5063647;28;20123;-84
2020/12/22 06:52:34;;;;;;;10.80;2.65;;;;;;;14.37;71.66;100929.41;5061686;28;20033;-85
2020/12/22 06:55:02;;;;;;;12.23;2.15;;;;;;;14.23;71.77;100928.06;5060203;28;20033;-83
2020/12/22 06:57:46;;;;;;;11.95;2.08;;;;;;;14.21;71.87;100932.56;5065250;28;20102;-84
2020/12/22 07:05:58;;;;;;;14.10;1.98;;;;;;;14.21;72.17;100939.72;5080226;28;20411;-84
2020/12/22 07:08:28;;;;;;;10.02;1.90;;;;;;;14.35;71.48;100933.91;5068625;28;20031;-85
2020/12/22 07:10:55;;;;;;;11.30;2.03;;;;;;;14.42;71.27;100946.09;5064688;28;20048;-84
2020/12/22 07:13:25;;;;;;;14.82;2.38;;;;;;;14.09;72.37;100932.97;5059141;28;20029;-82
2020/12/22 07:15:54;;;;;;;11.35;2.65;;;;;;;14.33;71.63;100952.63;5059202;28;20090;-83
2020/12/22 07:18:30;;;;;;;13.23;2.15;;;;;;;14.46;71.28;100954.88;5061504;28;20104;-82
2020/12/22 07:20:58;;;;;;;13.30;2.42;;;;;;;14.35;71.63;100950.75;5055283;28;20021;-83
2020/12/22 07:23:24;;;;;;;17.10;3.20;;;;;;;14.32;71.61;100947.34;5055446;28;20029;-82
2020/12/22 07:25:51;;;;;;;16.38;2.63;;;;;;;14.40;71.37;100953.28;5054599;28;20127;-85
2020/12/22 07:28:18;;;;;;;14.43;2.33;;;;;;;14.32;71.39;100955.34;5059066;28;20148;-87
2020/12/22 07:30:45;;;;;;;16.33;3.72;;;;;;;14.21;71.32;100995.66;5061265;28;20033;-83
2020/12/22 07:33:12;;;;;;;19.17;3.10;;;;;;;14.16;71.86;100976.31;5062661;28;20029;-86
2020/12/22 07:35:38;;;;;;;18.60;3.28;;;;;;;14.21;71.68;100985.88;5058488;28;20021;-83
2020/12/22 07:38:08;;;;;;;20.88;2.97;;;;;;;14.47;70.92;100981.47;5058034;28;20018;-86
2020/12/22 07:40:37;;;;;;;16.55;2.60;;;;;;;14.44;70.79;100981.56;5057203;28;20047;-82
2020/12/22 07:43:05;;;;;;;18.90;3.03;;;;;;;14.49;70.62;100989.41;5056075;28;20029;-83
2020/12/22 07:45:31;;;;;;;20.33;3.58;;;;;;;14.40;70.89;101001.25;5057174;28;20112;-83
2020/12/22 07:47:57;;;;;;;14.90;3.35;;;;;;;14.40;70.82;101006.59;5057053;28;20049;-83
2020/12/22 07:50:23;;;;;;;11.45;2.60;;;;;;;14.52;70.36;101011.50;5056167;28;20047;-84
2020/12/22 07:52:58;;;;;;;26.98;4.07;;;;;;;14.54;70.08;101004.34;5054292;28;20060;-84
2020/12/22 07:55:25;;;;;;;23.70;6.25;;;;;;;14.56;69.92;101015.81;5063993;28;20499;-83
2020/12/22 07:57:57;;;;;;;25.90;5.25;;;;;;;14.46;70.10;101033.03;5052462;28;20112;-83
2020/12/22 08:00:24;;;;;;;21.77;4.30;;;;;;;14.54;69.88;101031.00;5056892;28;20039;-82
2020/12/22 08:02:50;;;;;;;25.17;3.40;;;;;;;14.52;70.25;101059.50;5055999;28;20033;-81
2020/12/22 08:05:16;;;;;;;19.23;3.45;;;;;;;14.12;71.11;101060.78;5054342;28;20025;-80
2020/12/22 08:07:50;;;;;;;27.33;4.28;;;;;;;14.54;70.03;101063.00;5054385;28;20041;-79
2020/12/22 08:10:17;;;;;;;20.15;3.80;;;;;;;14.47;70.22;101064.13;5053251;28;20037;-82
2020/12/22 08:12:52;;;;;;;24.98;4.00;;;;;;;14.26;70.72;101088.81;5054605;28;20052;-82
2020/12/22 08:15:18;;;;;;;25.77;5.03;;;;;;;14.04;71.39;101086.78;5056235;28;20040;-84
2020/12/22 08:17:48;;;;;;;26.80;3.45;;;;;;;14.44;70.26;101077.53;5041411;28;20075;-82
2020/12/22 08:20:16;;;;;;;24.85;3.85;;;;;;;14.44;70.21;101096.19;5044191;28;20024;-81
2020/12/22 08:22:43;;;;;;;25.45;4.60;;;;;;;14.46;70.10;101088.16;5045989;28;20044;-83
2020/12/22 08:25:11;;;;;;;23.27;5.00;;;;;;;14.28;70.68;101098.50;5042885;28;20366;-84
2020/12/22 08:27:37;;;;;;;31.75;5.90;;;;;;;14.51;69.99;101096.88;5042288;28;20029;-85
2020/12/22 08:30:20;;;;;;;29.52;5.95;;;;;;;14.26;71.78;101107.47;5041850;28;20581;-81
2020/12/22 08:32:47;;;;;;;33.92;5.25;;;;;;;14.26;71.75;101104.78;5041903;28;20488;-80
2020/12/22 08:35:21;;;;;;;27.63;4.10;;;;;;;14.39;71.46;101116.78;5040036;28;20071;-87
2020/12/22 08:37:47;;;;;;;29.17;5.25;;;;;;;14.09;72.53;101124.81;5041280;28;20039;-81
2020/12/22 08:40:31;;;;;;;30.95;6.05;;;;;;;14.06;73.00;101120.47;5039827;28;20025;-85
2020/12/22 08:42:58;;;;;;;34.95;4.65;;;;;;;14.20;72.55;101138.69;5042696;28;20088;-83
2020/12/22 08:45:26;;;;;;;37.47;5.60;;;;;;;13.94;73.45;101151.94;5040684;28;20040;-80
2020/12/22 08:47:54;;;;;;;35.40;5.97;;;;;;;13.99;73.22;101134.88;5042374;28;20022;-86
2020/12/22 08:50:20;;;;;;;32.92;6.40;;;;;;;14.02;73.27;101144.59;5042903;28;21698;-87
2020/12/22 08:52:47;;;;;;;32.92;5.35;;;;;;;13.91;73.45;101151.09;5040510;28;20022;-85
2020/12/22 08:55:13;;;;;;;33.30;5.72;;;;;;;14.09;73.03;101156.78;5029731;28;20037;-85
2020/12/22 08:57:39;;;;;;;36.35;4.68;;;;;;;14.09;73.18;101156.78;5041646;28;20136;-90
2020/12/22 09:00:14;;;;;;;42.08;6.32;;;;;;;13.95;73.67;101162.53;5042730;28;20034;-85
2020/12/22 09:02:41;;;;;;;36.05;4.80;;;;;;;14.06;73.26;101151.56;5042265;28;20519;-83
2020/12/22 09:05:12;;;;;;;27.58;6.40;;;;;;;14.01;73.24;101165.00;5040171;28;20067;-93
2020/12/22 09:07:38;;;;;;;40.70;6.75;;;;;;;13.80;74.29;101190.47;5039242;28;20094;-81
2020/12/22 09:10:06;;;;;;;40.28;5.97;;;;;;;13.90;74.08;101193.75;5039792;28;20030;-83
2020/12/22 09:12:33;;;;;;;40.15;6.03;;;;;;;13.95;73.90;101196.31;5041499;28;20051;-88
2020/12/22 09:15:00;;;;;;;39.13;7.00;;;;;;;13.73;74.97;101197.78;5049957;28;20090;-89
2020/12/22 09:17:33;;;;;;;37.88;6.18;;;;;;;13.73;74.58;101216.41;5041614;28;20428;-83
2020/12/22 09:20:00;;;;;;;37.85;8.10;;;;;;;13.90;73.94;101215.94;5052350;28;20107;-85
2020/12/22 09:22:28;;;;;;;43.50;7.35;;;;;;;13.81;74.69;101223.31;5038363;28;20502;-88
2020/12/22 09:25:00;;;;;;;45.53;6.82;;;;;;;13.94;73.67;101221.19;5036763;28;20112;-85
2020/12/22 09:30:17;;;;;;;23.20;4.32;;;;;;;13.77;74.19;101235.84;5078725;28;20418;-84
2020/12/22 09:32:46;;;;;;;24.80;3.75;;;;;;;13.81;73.55;101242.84;5047588;23;20513;-83
2020/12/22 09:35:13;;;;;;;16.20;3.28;;;;;;;13.60;73.96;101262.91;5006992;28;20494;-83
2020/12/22 09:37:39;;;;;;;10.65;2.38;;;;;;;13.57;73.57;101261.22;5004502;28;20026;-82
2020/12/22 09:40:05;;;;;;;22.02;3.60;;;;;;;13.30;74.39;101264.53;4996077;28;20120;-89
2020/12/22 09:42:37;;;;;;;20.17;3.63;;;;;;;13.45;74.31;101268.63;4992193;28;20034;-83
2020/12/22 09:45:03;;;;;;;21.02;6.68;;;;;;;13.49;73.79;101273.81;5002404;28;20065;-83
2020/12/22 09:47:38;;;;;;;18.83;4.35;;;;;;;13.42;73.83;101282.88;4996539;28;20434;-90
2020/12/22 09:50:05;;;;;;;18.30;2.78;;;;;;;13.49;73.30;101295.13;4989981;28;20046;-81
2020/12/22 09:52:31;;;;;;;16.58;3.53;;;;;;;13.47;73.57;101296.97;5003425;28;20026;-82
2020/12/22 09:54:57;;;;;;;17.85;3.92;;;;;;;13.43;73.42;101300.59;5005199;28;20030;-82
2020/12/22 09:57:23;;;;;;;12.95;3.95;;;;;;;13.26;73.86;101317.81;5000904;28;20038;-80
2020/12/22 09:59:53;;;;;;;15.23;3.53;;;;;;;13.36;73.33;101317.63;5001545;28;20050;-85
2020/12/22 10:02:19;;;;;;;12.20;3.53;;;;;;;13.26;73.62;101325.81;5006225;28;20088;-81
2020/12/22 10:04:45;;;;;;;15.07;3.70;;;;;;;13.24;73.35;101337.41;5007685;28;20035;-81
2020/12/22 10:07:11;;;;;;;17.67;3.45;;;;;;;13.25;73.12;101344.47;5007056;28;20042;-81
2020/12/22 10:09:37;;;;;;;23.45;4.00;;;;;;;13.11;74.22;101358.97;5008633;28;20121;-82
2020/12/22 10:12:04;;;;;;;12.73;2.60;;;;;;;13.01;73.85;101356.53;5007363;28;20065;-80
2020/12/22 10:14:31;;;;;;;12.13;5.05;;;;;;;12.95;73.41;101355.75;5007651;28;20026;-81
2020/12/22 10:16:57;;;;;;;14.05;4.78;;;;;;;12.92;73.54;101358.50;5007903;28;20448;-83
2020/12/22 10:19:23;;;;;;;14.70;5.45;;;;;;;12.77;73.63;101373.00;5007717;28;20022;-82
2020/12/22 10:21:51;;;;;;;18.25;4.63;;;;;;;12.81;73.65;101375.56;5008329;28;20053;-82
2020/12/22 10:24:17;;;;;;;15.40;3.88;;;;;;;12.76;73.86;101373.00;5005562;28;20028;-82
2020/12/22 10:26:44;;;;;;;12.15;5.50;;;;;;;12.68;73.98;101380.28;5008056;28;20120;-83
2020/12/22 10:29:10;;;;;;;21.83;5.20;;;;;;;12.76;73.36;101386.28;5007558;28;20115;-84
2020/12/22 10:31:36;;;;;;;12.90;5.82;;;;;;;12.75;73.61;101376.59;5005646;28;20113;-85
2020/12/22 10:34:02;;;;;;;11.07;5.35;;;;;;;12.55;74.16;101383.19;5005846;28;20551;-84
2020/12/22 10:36:28;;;;;;;16.75;5.90;;;;;;;12.64;73.58;101379.47;5007671;28;20056;-83
2020/12/22 10:38:56;;;;;;;20.10;6.32;;;;;;;12.51;73.95;101377.94;5019405;28;20361;-85
2020/12/22 10:41:23;;;;;;;23.27;6.55;;;;;;;12.58;73.88;101380.44;4996372;28;20030;-85
2020/12/22 10:43:49;;;;;;;22.17;6.40;;;;;;;12.41;74.33;101382.56;4992603;28;20039;-85
2020/12/22 10:46:17;;;;;;;27.77;7.38;;;;;;;12.54;74.08;101383.22;4989710;28;20106;-81
2020/12/22 10:48:44;;;;;;;19.92;6.00;;;;;;;12.61;73.08;101380.41;4992464;28;20482;-86
2020/12/22 10:51:11;;;;;;;13.23;5.57;;;;;;;12.54;73.13;101394.72;4995441;28;20069;-86
2020/12/22 10:53:37;;;;;;;23.25;8.05;;;;;;;12.52;73.41;101391.19;4990627;28;20046;-82
2020/12/22 10:56:12;;;;;;;26.50;9.88;;;;;;;12.50;73.55;101401.00;4991059;28;20474;-90
2020/12/22 10:58:46;;;;;;;19.27;7.53;;;;;;;12.62;72.62;101402.53;4994998;28;20031;-86
2020/12/22 11:01:14;;;;;;;18.30;8.48;;;;;;;12.69;72.72;101404.16;4994966;28;20026;-82
2020/12/22 11:03:41;;;;;;;15.43;8.23;;;;;;;12.53;73.29;101408.03;4989353;28;20030;-87
2020/12/22 11:08:48;;;;;;;21.42;9.60;;;;;;;12.66;72.78;101419.31;5056917;28;20403;-83
2020/12/22 11:11:15;;;;;;;27.17;13.90;;;;;;;12.75;72.45;101421.81;5048808;28;20044;-88
2020/12/22 11:13:45;;;;;;;15.07;9.77;;;;;;;12.92;72.23;101422.34;5038784;28;20064;-88
2020/12/22 11:16:11;;;;;;;14.52;7.32;;;;;;;12.77;72.44;101417.31;5039399;28;20049;-83
2020/12/22 11:18:38;;;;;;;21.08;6.00;;;;;;;12.91;71.82;101419.69;5037275;28;20048;-88
2020/12/22 11:21:12;;;;;;;19.40;6.47;;;;;;;13.06;71.48;101419.38;5040628;28;20028;-89
2020/12/22 11:23:38;;;;;;;17.00;5.35;;;;;;;12.94;71.68;101423.16;5038164;28;20445;-87
2020/12/22 11:26:05;;;;;;;10.63;5.10;;;;;;;12.92;71.60;101427.66;5042944;28;20064;-90
2020/12/22 11:28:31;;;;;;;10.38;4.85;;;;;;;12.85;71.59;101436.66;5042459;28;20037;-87
2020/12/22 11:30:57;;;;;;;23.77;5.53;;;;;;;12.87;70.95;101440.16;5036757;28;20063;-84
2020/12/22 11:33:24;;;;;;;12.00;4.70;;;;;;;12.83;71.59;101443.78;5039104;28;20034;-88
2020/12/22 11:35:50;;;;;;;11.13;5.80;;;;;;;12.93;70.75;101439.16;5041323;28;20038;-90
2020/12/22 11:38:17;;;;;;;10.07;5.28;;;;;;;12.86;71.07;101448.16;5042256;28;20112;-89
2020/12/22 11:40:43;;;;;;;13.07;4.45;;;;;;;12.89;70.66;101454.28;5039983;28;20069;-91
2020/12/22 11:43:12;;;;;;;9.95;4.50;;;;;;;12.91;70.02;101463.13;5042252;28;20033;-91
2020/12/22 11:45:42;;;;;;;12.57;5.13;;;;;;;12.89;70.27;101462.28;5039192;28;20030;-91